Flight Track Log - Related Links

Times and Time Zones

All times are in EST time to prevent confusion due to time zone crossing. See the AFL150 flight status page for this flight to view local times or setup timezone preferences in your user account.

Time Position Orientation Groundspeed Altitude Reporting Facility
EST Latitude Longitude Course Direction KTS MPH feet Rate Location/Type
Thu 05:46:00 AM 56.1859 37.0141 307° West  Level Estimated
Thu 05:47:00 AM 56.2536 36.8491 306° West  Level Estimated
Thu 05:48:00 AM 56.3211 36.6834 306° West  Level Estimated
Thu 05:49:00 AM 56.3884 36.5171 306° West  Level Estimated
Thu 05:50:00 AM 56.4555 36.3503 306° West  Level Estimated
Thu 05:51:00 AM 56.5223 36.1828 306° West  Level Estimated
Thu 05:52:00 AM 56.5889 36.0148 306° West  Level Estimated
Thu 05:53:00 AM 56.6553 35.8462 306° West  Level Estimated
Thu 05:54:00 AM 56.7214 35.6770 306° West  Level Estimated
Thu 05:55:00 AM 56.7874 35.5072 305° West  Level Estimated
Thu 05:56:00 AM 56.8531 35.3368 305° West  Level Estimated
Thu 05:57:00 AM 56.9185 35.1657 305° West  Level Estimated
Thu 05:58:00 AM 56.9837 34.9941 305° West  Level Estimated
Thu 05:59:00 AM 57.0487 34.8219 305° West  Level Estimated
Thu 06:00:00 AM 57.1135 34.6491 305° West  Level Estimated
Thu 06:01:00 AM 57.1780 34.4757 305° West  Level Estimated
Thu 06:02:00 AM 57.2422 34.3017 304° West  Level Estimated
Thu 06:03:00 AM 57.3063 34.1271 304° West  Level Estimated
Thu 06:04:00 AM 57.3701 33.9519 304° West  Level Estimated
Thu 06:05:00 AM 57.4336 33.7760 304° West  Level Estimated
Thu 06:06:00 AM 57.4961 33.6019 304° West  Level Estimated
Thu 06:07:00 AM 57.5583 33.4271 304° West  Level Estimated
Thu 06:08:00 AM 57.6203 33.2518 303° West  Level Estimated
Thu 06:09:00 AM 57.6821 33.0759 303° West  Level Estimated
Thu 06:10:00 AM 57.7436 32.8993 303° West  Level Estimated
Thu 06:11:00 AM 57.8048 32.7222 303° West  Level Estimated
Thu 06:12:00 AM 57.8658 32.5445 303° West  Level Estimated
Thu 06:12:11 AM 56.4729 32.0885 303° West 466 536 36,000  Level FlightAware ADS-B
Thu 06:13:12 AM 56.4907 31.8733 279° West 466 536 36,000  Level FlightAware ADS-B
Thu 06:14:11 AM 56.5055 31.6899 278° West 465 535 36,000  Level FlightAware ADS-B
Thu 06:15:10 AM 56.5272 31.4168 278° West 466 536 36,000  Level FlightAware ADS-B
Thu 06:16:11 AM 56.5554 31.1867 283° West 466 536 36,000  Level FlightAware ADS-B
Thu 06:17:12 AM 56.6105 30.9668 295° West 465 535 36,000  Level FlightAware ADS-B
Thu 06:18:11 AM 56.6915 30.7708 307° West 463 533 36,000  Level FlightAware ADS-B
Thu 06:19:11 AM 56.7640 30.5921 307° West 464 534 36,000  Level FlightAware ADS-B
Thu 06:20:10 AM 56.8385 30.3961 305° West 466 536 36,000  Level FlightAware ADS-B
Thu 06:21:10 AM 56.9106 30.2010 304° West 468 539 36,000  Level FlightAware ADS-B
Thu 06:22:12 AM 56.9841 29.9995 304° West 468 539 36,000  Level FlightAware ADS-B
Thu 06:23:12 AM 57.0562 29.8006 304° West 468 539 36,000  Level FlightAware ADS-B
Thu 06:24:12 AM 57.1230 29.6143 304° West 469 540 36,000  Level FlightAware ADS-B
Thu 06:25:11 AM 57.1980 29.4043 303° West 470 541 36,000  Level FlightAware ADS-B
Thu 06:26:12 AM 57.2705 29.1987 303° West 471 542 36,000  Level FlightAware ADS-B
Thu 06:27:11 AM 57.3408 28.9986 303° West 472 543 36,000  Level FlightAware ADS-B
Thu 06:28:12 AM 57.4123 28.7931 303° West 472 543 36,000  Level FlightAware ADS-B
Thu 06:29:11 AM 57.4810 28.5940 303° West 471 542 36,000  Level FlightAware ADS-B
Thu 06:30:11 AM 57.5516 28.3877 303° West 470 541 36,000  Level FlightAware ADS-B
Thu 06:31:12 AM 57.6065 28.1717 295° West 468 539 36,000  Level FlightAware ADS-B
Thu 06:32:11 AM 57.6549 27.9468 292° West 468 539 36,000  Level FlightAware ADS-B
Thu 06:33:11 AM 57.7015 27.7261 292° West 470 541 36,000  Level FlightAware ADS-B
Thu 06:34:11 AM 57.7506 27.4918 292° West 472 543 36,000  Level FlightAware ADS-B
Thu 06:35:11 AM 57.7964 27.2710 291° West 472 543 36,000  Level FlightAware ADS-B
Thu 06:36:12 AM 57.8425 27.0461 291° West 470 541 36,000  Level FlightAware ADS-B
Thu 06:37:11 AM 57.8895 26.8145 291° West 469 540 36,000  Level FlightAware ADS-B
Thu 06:38:12 AM 57.9365 26.5797 291° West 470 541 36,000  Level FlightAware ADS-B
Thu 06:39:11 AM 57.9787 26.3667 291° West 469 540 36,000  Level FlightAware ADS-B
Thu 06:40:11 AM 58.0266 26.1216 290° West 471 542 36,000  Level FlightAware ADS-B
Thu 06:41:11 AM 58.0689 25.9030 290° West 472 543 36,000  Level FlightAware ADS-B
Thu 06:42:12 AM 58.1142 25.6661 290° West 474 545 36,000  Level FlightAware ADS-B
Thu 06:43:12 AM 58.1591 25.4280 290° West 474 545 36,000  Level FlightAware ADS-B
Thu 06:44:12 AM 58.2036 25.1899 290° West 472 543 36,000  Level FlightAware ADS-B
Thu 06:45:11 AM 58.2457 24.9614 289° West 471 542 36,000  Level FlightAware ADS-B
Thu 06:46:11 AM 58.2874 24.7323 289° West 468 539 36,000  Level FlightAware ADS-B
Thu 06:47:11 AM 58.3300 24.4949 289° West 466 536 36,000  Level FlightAware ADS-B
Thu 06:48:09 AM 58.3617 24.3167 289° West 463 533 36,000  Level FlightAware ADS-B
Thu 06:48:45 AM 58.3847 24.1856 289° West 463 533 36,000  Level FlightAware ADS-B
Thu 06:52:49 AM 58.3995 24.1015 295° West 461 531 36,000  Level FlightAware ADS-B
Thu 06:57:36 AM 58.6559 22.5714 295° West 457 526 36,000  Level FlightAware ADS-B
Thu 07:00:15 AM 58.8256 21.4791 295° West 459 528 36,000  Level FlightAware ADS-B
Thu 07:00:57 AM 58.8534 21.2929 286° West 460 529 36,000  Level FlightAware ADS-B
Thu 07:01:29 AM 58.8749 21.1477 286° West 456 525 36,000  Level FlightAware ADS-B
Thu 07:01:59 AM 58.8918 21.0324 286° West 456 525 36,000  Level FlightAware ADS-B
Thu 07:02:29 AM 58.9104 20.9136 287° West 457 526 36,000  Level FlightAware ADS-B
Thu 07:03:14 AM 58.9387 20.7389 287° West 457 526 36,000  Level FlightAware ADS-B
Thu 07:03:44 AM 58.9585 20.6204 288° West 457 526 36,000  Level FlightAware ADS-B
Thu 07:04:16 AM 58.9758 20.5151 288° West 459 528 36,000  Level FlightAware ADS-B
Thu 07:04:46 AM 58.9980 20.3796 288° West 454 522 36,000  Level FlightAware ADS-B
Thu 07:05:17 AM 59.0131 20.2864 288° West 455 524 36,000  Level FlightAware ADS-B
Thu 07:05:57 AM 59.0394 20.1234 287° West 454 522 36,000  Level FlightAware ADS-B
Thu 07:06:31 AM 59.0632 19.9737 287° West 453 521 36,000  Level FlightAware ADS-B
Thu 07:07:17 AM 59.0880 19.8169 287° West 454 522 36,000  Level FlightAware ADS-B
Thu 07:07:57 AM 59.1131 19.6576 287° West 453 521 36,000  Level FlightAware ADS-B
Thu 07:08:31 AM 59.1367 19.5052 287° West 453 521 36,000  Level FlightAware ADS-B
Thu 07:09:17 AM 59.1593 19.3587 287° West 453 521 36,000  Level FlightAware ADS-B
Thu 07:09:47 AM 59.1820 19.2098 287° West 453 521 36,000  Level FlightAware ADS-B
Thu 07:10:18 AM 59.1948 19.1248 286° West 452 520 36,000  Level FlightAware ADS-B
Thu 07:10:57 AM 59.2199 18.9584 286° West 450 518 36,000  Level FlightAware ADS-B
Thu 07:11:15 AM 59.2336 18.8667 286° West 447 514 36,000  Level FlightAware ADS-B
Thu 07:11:31 AM 59.2424 18.8069 286° West 448 516 36,000  Level FlightAware ADS-B
Thu 07:12:01 AM 59.2594 18.6924 286° West 449 517 36,000  Level FlightAware ADS-B
Thu 07:12:31 AM 59.2773 18.5709 286° West 448 516 36,000  Level FlightAware ADS-B
Thu 07:13:17 AM 59.3001 18.4150 286° West 449 517 36,000  Level FlightAware ADS-B
Thu 07:13:56 AM 59.3216 18.2654 286° West 448 516 36,000  Level FlightAware ADS-B
Thu 07:14:37 AM 59.3456 18.0966 286° West 447 514 36,000  Level FlightAware ADS-B
Thu 07:15:18 AM 59.3664 17.9494 286° West 448 516 36,000  Level FlightAware ADS-B
Thu 07:15:55 AM 59.3858 17.8111 285° West 449 517 36,000  Level FlightAware ADS-B
Thu 07:16:31 AM 59.4101 17.6350 285° West 449 517 36,000  Level FlightAware ADS-B
Thu 07:17:16 AM 59.4319 17.4765 285° West 448 516 36,000  Level FlightAware ADS-B
Thu 07:17:47 AM 59.4506 17.3386 285° West 448 516 36,000  Level FlightAware ADS-B
Thu 07:18:17 AM 59.4635 17.2430 285° West 448 516 36,000  Level FlightAware ADS-B
Thu 07:18:54 AM 59.4828 17.0987 285° West 448 516 36,000  Level FlightAware ADS-B
Thu 07:19:37 AM 59.5043 16.9383 285° West 449 517 36,000  Level FlightAware ADS-B
Thu 07:20:18 AM 59.5259 16.7726 284° West 450 518 36,000  Level FlightAware ADS-B
Thu 07:20:57 AM 59.5465 16.6145 284° West 450 518 36,000  Level FlightAware ADS-B
Thu 07:21:37 AM 59.5669 16.4550 284° West 452 520 36,000  Level FlightAware ADS-B
Thu 07:21:54 AM 59.5787 16.3628 284° West 450 518 36,000  Level FlightAware ADS-B
Thu 07:22:36 AM 59.5977 16.2120 284° West 452 520 36,000  Level FlightAware ADS-B
Thu 07:23:07 AM 59.6152 16.0721 284° West 451 519 36,000  Level FlightAware ADS-B
Thu 07:23:37 AM 59.6276 15.9718 284° West 454 522 36,000  Level FlightAware ADS-B
Thu 07:24:17 AM 59.6473 15.8110 284° West 456 525 36,000  Level FlightAware ADS-B
Thu 07:24:51 AM 59.6664 15.6538 284° West 453 521 36,000  Level FlightAware ADS-B
Thu 07:25:21 AM 59.6811 15.5313 283° West 453 521 36,000  Level FlightAware ADS-B
Thu 07:26:02 AM 59.7005 15.3677 283° West 452 520 36,000  Level FlightAware ADS-B
Thu 07:26:33 AM 59.7152 15.2444 283° West 451 519 36,000  Level FlightAware ADS-B
Thu 07:27:15 AM 59.7350 15.0752 283° West 454 522 36,000  Level FlightAware ADS-B
Thu 07:27:45 AM 59.7492 14.9515 283° West 455 524 36,000  Level FlightAware ADS-B
Thu 07:28:30 AM 59.7700 14.7696 283° West 456 525 36,000  Level FlightAware ADS-B
Thu 07:29:06 AM 59.7866 14.6223 283° West 456 525 36,000  Level FlightAware ADS-B
Thu 07:29:50 AM 59.8065 14.4429 283° West 457 526 36,000  Level FlightAware ADS-B
Thu 07:30:20 AM 59.8199 14.3219 282° West 457 526 36,000  Level FlightAware ADS-B
Thu 07:30:50 AM 59.8333 14.1993 282° West 456 525 36,000  Level FlightAware ADS-B
Thu 07:31:20 AM 59.8468 14.0750 282° West 456 525 36,000  Level FlightAware ADS-B
Thu 07:31:54 AM 59.8616 13.9352 282° West 454 522 36,000  Level FlightAware ADS-B
Thu 07:32:27 AM 59.8755 13.8045 282° West 454 522 36,000  Level FlightAware ADS-B
Thu 07:33:12 AM 59.8949 13.6187 282° West 455 524 36,000  Level FlightAware ADS-B
Thu 07:33:42 AM 59.9078 13.4947 282° West 456 525 36,000  Level FlightAware ADS-B
Thu 07:34:26 AM 59.9267 13.3141 282° West 458 527 36,000  Level FlightAware ADS-B
Thu 07:34:56 AM 59.9453 13.1921 287° West 460 529 36,000  Level FlightAware ADS-B
Thu 07:35:39 AM 59.9712 13.0199 287° West 459 528 36,000  Level FlightAware ADS-B
Thu 07:36:10 AM 59.9899 12.8951 287° West 460 529 36,000  Level FlightAware ADS-B
Thu 07:36:54 AM 60.0166 12.7157 287° West 459 528 36,000  Level FlightAware ADS-B
Thu 07:37:24 AM 60.0348 12.5910 286° West 457 526 36,000  Level FlightAware ADS-B
Thu 07:38:09 AM 60.0606 12.4123 286° West 455 524 36,000  Level FlightAware ADS-B
Thu 07:38:42 AM 60.0800 12.2770 286° West 457 526 36,000  Level FlightAware ADS-B
Thu 07:39:26 AM 60.1057 12.0974 286° West 456 525 36,000  Level FlightAware ADS-B
Thu 07:40:11 AM 60.1310 11.9172 286° West 456 525 36,000  Level FlightAware ADS-B
Thu 07:40:41 AM 60.1485 11.7915 286° West 457 526 36,000  Level FlightAware ADS-B
Thu 07:41:23 AM 60.1720 11.6208 286° West 456 525 36,000  Level FlightAware ADS-B
Thu 07:41:54 AM 60.1897 11.4914 285° West 457 526 36,000  Level FlightAware ADS-B
Thu 07:42:25 AM 60.2061 11.3703 285° West 456 525 36,000  Level FlightAware ADS-B
Thu 07:43:18 AM 60.2351 11.1540 285° West 458 527 36,000  Level FlightAware ADS-B
Thu 07:43:48 AM 60.2519 11.0275 285° West 458 527 36,000  Level FlightAware ADS-B
Thu 07:44:18 AM 60.2685 10.9017 285° West 459 528 36,000  Level FlightAware ADS-B
Thu 07:44:49 AM 60.2845 10.7796 285° West 461 531 36,000  Level FlightAware ADS-B
Thu 07:45:26 AM 60.3049 10.6211 285° West 462 532 36,000  Level FlightAware ADS-B
Thu 07:45:56 AM 60.3209 10.4965 285° West 462 532 36,000  Level FlightAware ADS-B
Thu 07:46:46 AM 60.3471 10.2908 285° West 463 533 36,000  Level FlightAware ADS-B
Thu 07:47:25 AM 60.3678 10.1258 284° West 465 535 36,000  Level FlightAware ADS-B
Thu 07:47:56 AM 60.3837 9.9971 284° West 467 537 36,000  Level FlightAware ADS-B
Thu 07:48:40 AM 60.4064 9.8103 284° West 467 537 36,000  Level FlightAware ADS-B
Thu 07:49:14 AM 60.4235 9.6697 284° West 467 537 36,000  Level FlightAware ADS-B
Thu 07:49:44 AM 60.4389 9.5419 284° West 465 535 36,000  Level FlightAware ADS-B
Thu 07:50:15 AM 60.4550 9.4065 284° West 464 534 36,000  Level FlightAware ADS-B
Thu 07:50:45 AM 60.4702 9.2780 284° West 464 534 36,000  Level FlightAware ADS-B
Thu 07:51:28 AM 60.4915 9.0966 283° West 460 529 36,000  Level FlightAware ADS-B
Thu 07:52:01 AM 60.5067 8.9646 283° West 456 525 36,000  Level FlightAware ADS-B
Thu 07:52:45 AM 60.5280 8.7772 283° West 449 517 36,000  Level FlightAware ADS-B
Thu 07:53:16 AM 60.5417 8.6549 283° West 451 519 36,000  Level FlightAware ADS-B
Thu 07:54:01 AM 60.5620 8.4714 283° West 450 518 36,000  Level FlightAware ADS-B
Thu 07:54:47 AM 60.5834 8.2771 283° West 451 519 36,000  Level FlightAware ADS-B
Thu 07:55:31 AM 60.6031 8.0965 283° West 451 519 36,000  Level FlightAware ADS-B
Thu 07:57:32 AM 60.6538 7.6151 282° West 452 520 36,000  Level FlightAware ADS-B
Thu 07:58:11 AM 60.6707 7.4518 282° West 453 521 36,000 -456 Level FlightAware ADS-B
Thu 07:58:51 AM 60.6880 7.2816 282° West 456 525 35,400 -889 Descending FlightAware ADS-B
Thu 07:59:32 AM 60.7049 7.1136 282° West 459 528 34,800 -769 Descending FlightAware ADS-B
Thu 08:00:09 AM 60.7203 6.9565 281° West 461 531 34,400 -538 Descending FlightAware ADS-B
Thu 08:00:50 AM 60.7380 6.7752 281° West 464 534 34,100 -296 Descending FlightAware ADS-B
Thu 08:01:30 AM 60.7540 6.6104 281° West 456 525 34,000 -77 Descending FlightAware ADS-B
Thu 08:02:08 AM 60.7691 6.4504 281° West 458 527 34,000  Level FlightAware ADS-B
Thu 08:02:50 AM 60.7860 6.2700 281° West 456 525 34,000  Level FlightAware ADS-B
Thu 08:03:31 AM 60.8021 6.0957 281° West 456 525 34,000  Level FlightAware ADS-B
Thu 08:04:11 AM 60.8170 5.9311 281° West 457 526 34,000  Level FlightAware ADS-B
Thu 08:04:51 AM 60.8327 5.7558 280° West 455 524 34,000  Level FlightAware ADS-B
Thu 08:05:31 AM 60.8476 5.5870 280° West 457 526 34,000  Level FlightAware ADS-B
Thu 08:08:00 AM 60.8949 5.0210 280° West  Level Estimated
Thu 08:09:00 AM 60.9133 4.7926 280° West  Level Estimated
Thu 08:10:00 AM 60.9313 4.5639 279° West  Level Estimated
Thu 08:11:00 AM 60.9489 4.3350 279° West  Level Estimated
Thu 08:12:00 AM 60.9662 4.1058 279° West  Level Estimated
Thu 08:13:00 AM 60.9830 3.8764 279° West  Level Estimated
Thu 08:14:00 AM 60.9995 3.6467 279° West  Level Estimated
Thu 08:15:00 AM 61.0155 3.4168 278° West  Level Estimated
Thu 08:16:00 AM 61.0312 3.1867 278° West  Level Estimated
Thu 08:17:00 AM 61.0464 2.9563 278° West  Level Estimated
Thu 08:18:00 AM 61.0613 2.7257 278° West  Level Estimated
Thu 08:19:00 AM 61.0758 2.4950 277° West  Level Estimated
Thu 08:20:00 AM 61.0899 2.2640 277° West  Level Estimated
Thu 08:21:00 AM 61.1036 2.0328 277° West  Level Estimated
Thu 08:22:00 AM 61.1169 1.8014 277° West  Level Estimated
Thu 08:23:00 AM 61.1298 1.5698 277° West  Level Estimated
Thu 08:24:00 AM 61.1423 1.3380 276° West  Level Estimated
Thu 08:25:00 AM 61.1544 1.1061 276° West  Level Estimated
Thu 08:26:00 AM 61.1661 0.8740 276° West  Level Estimated
Thu 08:27:00 AM 61.1775 0.6417 276° West  Level Estimated
Thu 08:28:00 AM 61.1884 0.4092 276° West  Level Estimated
Thu 08:29:00 AM 61.1989 0.1766 275° West  Level Estimated
Thu 08:30:00 AM 61.2090 -0.0562 275° West  Level Estimated
Thu 08:31:00 AM 61.2187 -0.2891 275° West  Level Estimated
Thu 08:32:00 AM 61.2281 -0.5222 275° West  Level Estimated
Thu 08:33:00 AM 61.2370 -0.7554 275° West  Level Estimated
Thu 08:34:00 AM 61.2455 -0.9887 274° West  Level Estimated
Thu 08:35:00 AM 61.2536 -1.2221 274° West  Level Estimated
Thu 08:36:00 AM 61.2613 -1.4557 274° West  Level Estimated
Thu 08:37:00 AM 61.2687 -1.6894 274° West  Level Estimated
Thu 08:38:00 AM 61.2756 -1.9232 274° West  Level Estimated
Thu 08:39:00 AM 61.2821 -2.1571 273° West  Level Estimated
Thu 08:40:00 AM 61.2882 -2.3910 273° West  Level Estimated
Thu 08:41:00 AM 61.2939 -2.6251 273° West  Level Estimated
Thu 08:42:00 AM 61.2992 -2.8593 273° West  Level Estimated
Thu 08:43:00 AM 61.3041 -3.0935 273° West  Level Estimated
Thu 08:44:00 AM 61.3086 -3.3278 272° West  Level Estimated
Thu 08:45:00 AM 61.3127 -3.5621 272° West  Level Estimated
Thu 08:46:00 AM 61.3164 -3.7966 272° West  Level Estimated
Thu 08:47:00 AM 61.3197 -4.0310 272° West  Level Estimated
Thu 08:48:00 AM 61.3226 -4.2655 272° West  Level Estimated
Thu 08:49:00 AM 61.3251 -4.5001 271° West  Level Estimated
Thu 08:50:00 AM 61.3272 -4.7347 271° West  Level Estimated
Thu 08:51:00 AM 61.3288 -4.9693 271° West  Level Estimated
Thu 08:52:00 AM 61.3301 -5.2039 271° West  Level Estimated
Thu 08:53:00 AM 61.3310 -5.4386 271° West  Level Estimated
Thu 08:54:00 AM 61.3314 -5.6733 270° West  Level Estimated
Thu 08:55:00 AM 61.3315 -5.9079 270° West  Level Estimated
Thu 08:56:00 AM 61.3311 -6.1426 270° West  Level Estimated
Thu 08:57:00 AM 61.3304 -6.3773 270° West  Level Estimated
Thu 08:58:00 AM 61.3292 -6.6119 270° West  Level Estimated
Thu 08:59:00 AM 61.3276 -6.8465 269° West  Level Estimated
Thu 09:00:00 AM 61.3257 -7.0811 269° West  Level Estimated
Thu 09:01:00 AM 61.3233 -7.3157 269° West  Level Estimated
Thu 09:02:00 AM 61.3205 -7.5502 269° West  Level Estimated
Thu 09:03:00 AM 61.3173 -7.7847 268° West  Level Estimated
Thu 09:04:00 AM 61.3138 -8.0191 268° West  Level Estimated
Thu 09:05:00 AM 61.3098 -8.2535 268° West  Level Estimated
Thu 09:06:00 AM 61.3054 -8.4878 268° West  Level Estimated
Thu 09:07:00 AM 61.3006 -8.7221 268° West  Level Estimated
Thu 09:08:00 AM 61.2954 -8.9563 267° West  Level Estimated
Thu 09:09:00 AM 61.2898 -9.1903 267° West  Level Estimated
Thu 09:10:00 AM 61.2838 -9.4243 267° West  Level Estimated
Thu 09:11:00 AM 61.2774 -9.6582 267° West  Level Estimated
Thu 09:12:00 AM 61.2705 -9.8921 267° West  Level Estimated
Thu 09:13:00 AM 61.2633 -10.1258 266° West  Level Estimated
Thu 09:14:00 AM 61.2557 -10.3594 266° West  Level Estimated
Thu 09:15:00 AM 61.2477 -10.5928 266° West  Level Estimated
Thu 09:16:00 AM 61.2393 -10.8262 266° West  Level Estimated
Thu 09:17:00 AM 61.2305 -11.0594 266° West  Level Estimated
Thu 09:18:00 AM 61.2213 -11.2925 265° West  Level Estimated
Thu 09:19:00 AM 61.2116 -11.5255 265° West  Level Estimated
Thu 09:20:00 AM 61.2016 -11.7583 265° West  Level Estimated
Thu 09:21:00 AM 61.1912 -11.9910 265° West  Level Estimated
Thu 09:22:00 AM 61.1804 -12.2235 265° West  Level Estimated
Thu 09:23:00 AM 61.1692 -12.4558 264° West  Level Estimated
Thu 09:24:00 AM 61.1576 -12.6880 264° West  Level Estimated
Thu 09:25:00 AM 61.1456 -12.9200 264° West  Level Estimated
Thu 09:26:00 AM 61.1332 -13.1518 264° West  Level Estimated
Thu 09:27:00 AM 61.1204 -13.3834 264° West  Level Estimated
Thu 09:28:00 AM 61.1072 -13.6149 263° West  Level Estimated
Thu 09:29:00 AM 61.0936 -13.8461 263° West  Level Estimated
Thu 09:30:00 AM 61.0796 -14.0772 263° West  Level Estimated
Thu 09:31:00 AM 61.0652 -14.3080 263° West  Level Estimated
Thu 09:32:00 AM 61.0504 -14.5387 263° West  Level Estimated
Thu 09:33:00 AM 61.0353 -14.7691 262° West  Level Estimated
Thu 09:34:00 AM 61.0197 -14.9993 262° West  Level Estimated
Thu 09:35:00 AM 61.0037 -15.2292 262° West  Level Estimated
Thu 09:36:00 AM 60.9874 -15.4590 262° West  Level Estimated
Thu 09:37:00 AM 60.9707 -15.6884 262° West  Level Estimated
Thu 09:38:00 AM 60.9536 -15.9177 261° West  Level Estimated
Thu 09:39:00 AM 60.9361 -16.1467 261° West  Level Estimated
Thu 09:40:00 AM 60.9182 -16.3754 261° West  Level Estimated
Thu 09:41:00 AM 60.8999 -16.6039 261° West  Level Estimated
Thu 09:42:00 AM 60.8812 -16.8321 261° West  Level Estimated
Thu 09:43:00 AM 60.8621 -17.0600 260° West  Level Estimated
Thu 09:44:00 AM 60.8427 -17.2877 260° West  Level Estimated
Thu 09:45:00 AM 60.8229 -17.5151 260° West  Level Estimated
Thu 09:46:00 AM 60.8027 -17.7422 260° West  Level Estimated
Thu 09:47:00 AM 60.7821 -17.9690 260° West  Level Estimated
Thu 09:48:00 AM 60.7611 -18.1956 259° West  Level Estimated
Thu 09:49:00 AM 60.7397 -18.4218 259° West  Level Estimated
Thu 09:50:00 AM 60.7180 -18.6477 259° West  Level Estimated
Thu 09:51:00 AM 60.6959 -18.8733 259° West  Level Estimated
Thu 09:52:00 AM 60.6734 -19.0986 259° West  Level Estimated
Thu 09:53:00 AM 60.6505 -19.3236 258° West  Level Estimated
Thu 09:54:00 AM 60.6272 -19.5482 258° West  Level Estimated
Thu 09:55:00 AM 60.6036 -19.7726 258° West  Level Estimated
Thu 09:56:00 AM 60.5796 -19.9966 258° West  Level Estimated
Thu 09:57:00 AM 60.5552 -20.2202 258° West  Level Estimated
Thu 09:58:00 AM 60.5305 -20.4436 257° West  Level Estimated
Thu 09:59:00 AM 60.5054 -20.6666 257° West  Level Estimated
Thu 10:00:00 AM 60.4799 -20.8892 257° West  Level Estimated
Thu 10:01:00 AM 60.4540 -21.1115 257° West  Level Estimated
Thu 10:02:00 AM 60.4278 -21.3334 257° West  Level Estimated
Thu 10:03:00 AM 60.4012 -21.5550 256° West  Level Estimated
Thu 10:04:00 AM 60.3742 -21.7762 256° West  Level Estimated
Thu 10:05:00 AM 60.3469 -21.9970 256° West  Level Estimated
Thu 10:06:00 AM 60.3192 -22.2175 256° West  Level Estimated
Thu 10:07:00 AM 60.2911 -22.4376 256° West  Level Estimated
Thu 10:08:00 AM 60.2627 -22.6573 255° West  Level Estimated
Thu 10:09:00 AM 60.2339 -22.8766 255° West  Level Estimated
Thu 10:10:00 AM 60.2048 -23.0956 255° West  Level Estimated
Thu 10:11:00 AM 60.1752 -23.3141 255° West  Level Estimated
Thu 10:12:00 AM 60.1454 -23.5322 255° West  Level Estimated
Thu 10:13:00 AM 60.1151 -23.7500 255° West  Level Estimated
Thu 10:14:00 AM 60.0846 -23.9674 254° West  Level Estimated
Thu 10:15:00 AM 60.0536 -24.1843 254° West  Level Estimated
Thu 10:16:00 AM 60.0223 -24.4008 254° West  Level Estimated
Thu 10:17:00 AM 59.9907 -24.6169 254° West  Level Estimated
Thu 10:18:00 AM 59.9587 -24.8327 254° West  Level Estimated
Thu 10:19:00 AM 59.9263 -25.0480 253° West  Level Estimated
Thu 10:20:00 AM 59.8936 -25.2628 253° West  Level Estimated
Thu 10:21:00 AM 59.8606 -25.4773 253° West  Level Estimated
Thu 10:22:00 AM 59.8272 -25.6913 253° West  Level Estimated
Thu 10:23:00 AM 59.7934 -25.9049 253° West  Level Estimated
Thu 10:24:00 AM 59.7593 -26.1180 252° West  Level Estimated
Thu 10:25:00 AM 59.7249 -26.3307 252° West  Level Estimated
Thu 10:26:00 AM 59.6901 -26.5430 252° West  Level Estimated
Thu 10:27:00 AM 59.6550 -26.7548 252° West  Level Estimated
Thu 10:28:00 AM 59.6195 -26.9662 252° West  Level Estimated
Thu 10:29:00 AM 59.5837 -27.1772 252° West  Level Estimated
Thu 10:30:00 AM 59.5476 -27.3876 251° West  Level Estimated
Thu 10:31:00 AM 59.5111 -27.5977 251° West  Level Estimated
Thu 10:32:00 AM 59.4743 -27.8073 251° West  Level Estimated
Thu 10:33:00 AM 59.4371 -28.0164 251° West  Level Estimated
Thu 10:34:00 AM 59.3997 -28.2250 251° West  Level Estimated
Thu 10:35:00 AM 59.3619 -28.4332 250° West  Level Estimated
Thu 10:36:00 AM 59.3237 -28.6410 250° West  Level Estimated
Thu 10:37:00 AM 59.2853 -28.8482 250° West  Level Estimated
Thu 10:38:00 AM 59.2464 -29.0550 250° West  Level Estimated
Thu 10:39:00 AM 59.2073 -29.2613 250° West  Level Estimated
Thu 10:40:00 AM 59.1679 -29.4672 250° West  Level Estimated
Thu 10:41:00 AM 59.1281 -29.6726 249° West  Level Estimated
Thu 10:42:00 AM 59.0880 -29.8775 249° West  Level Estimated
Thu 10:43:00 AM 59.0476 -30.0819 249° West  Level Estimated
Thu 10:44:00 AM 59.0068 -30.2858 249° West  Level Estimated
Thu 10:45:00 AM 58.9657 -30.4892 249° West  Level Estimated
Thu 10:46:00 AM 58.9244 -30.6922 249° West  Level Estimated
Thu 10:47:00 AM 58.8826 -30.8947 248° West  Level Estimated
Thu 10:48:00 AM 58.8406 -31.0966 248° West  Level Estimated
Thu 10:49:00 AM 58.7983 -31.2981 248° West  Level Estimated
Thu 10:50:00 AM 58.7557 -31.4991 248° West  Level Estimated
Thu 10:51:00 AM 58.7127 -31.6996 248° West  Level Estimated
Thu 10:52:00 AM 58.6672 -31.9098 247° West  Level Estimated
Thu 10:53:00 AM 58.6214 -32.1194 247° West  Level Estimated
Thu 10:54:00 AM 58.5752 -32.3285 247° West  Level Estimated
Thu 10:55:00 AM 58.5288 -32.5370 247° West  Level Estimated
Thu 10:56:00 AM 58.4819 -32.7449 247° West  Level Estimated
Thu 10:57:00 AM 58.4348 -32.9523 247° West  Level Estimated
Thu 10:58:00 AM 58.3873 -33.1592 246° West  Level Estimated
Thu 10:59:00 AM 58.3394 -33.3655 246° West  Level Estimated
Thu 11:00:00 AM 58.2913 -33.5712 246° West  Level Estimated
Thu 11:01:00 AM 58.2428 -33.7763 246° West  Level Estimated
Thu 11:02:00 AM 58.1940 -33.9809 246° West  Level Estimated
Thu 11:03:00 AM 58.1448 -34.1850 246° West  Level Estimated
Thu 11:04:00 AM 58.0953 -34.3884 245° Southwest  Level Estimated
Thu 11:05:00 AM 58.0455 -34.5914 245° Southwest  Level Estimated
Thu 11:06:00 AM 57.9954 -34.7937 245° Southwest  Level Estimated
Thu 11:07:00 AM 57.9450 -34.9955 245° Southwest  Level Estimated
Thu 11:08:00 AM 57.8942 -35.1967 245° Southwest  Level Estimated
Thu 11:09:00 AM 57.8432 -35.3973 245° Southwest  Level Estimated
Thu 11:10:00 AM 57.7918 -35.5974 244° Southwest  Level Estimated
Thu 11:11:00 AM 57.7401 -35.7968 244° Southwest  Level Estimated
Thu 11:12:00 AM 57.6880 -35.9958 244° Southwest  Level Estimated
Thu 11:13:00 AM 57.6357 -36.1941 244° Southwest  Level Estimated
Thu 11:14:00 AM 57.5831 -36.3919 244° Southwest  Level Estimated
Thu 11:15:00 AM 57.5301 -36.5891 243° Southwest  Level Estimated
Thu 11:16:00 AM 57.4769 -36.7857 243° Southwest  Level Estimated
Thu 11:17:00 AM 57.4233 -36.9818 243° Southwest  Level Estimated
Thu 11:18:00 AM 57.3694 -37.1773 243° Southwest  Level Estimated
Thu 11:19:00 AM 57.3153 -37.3722 243° Southwest  Level Estimated
Thu 11:20:00 AM 57.2608 -37.5665 243° Southwest  Level Estimated
Thu 11:21:00 AM 57.2061 -37.7603 243° Southwest  Level Estimated
Thu 11:22:00 AM 57.1510 -37.9534 242° Southwest  Level Estimated
Thu 11:23:00 AM 57.0956 -38.1461 242° Southwest  Level Estimated
Thu 11:24:00 AM 57.0400 -38.3381 242° Southwest  Level Estimated
Thu 11:25:00 AM 56.9841 -38.5295 242° Southwest  Level Estimated
Thu 11:26:00 AM 56.9278 -38.7204 242° Southwest  Level Estimated
Thu 11:27:00 AM 56.8713 -38.9107 242° Southwest  Level Estimated
Thu 11:28:00 AM 56.8145 -39.1004 241° Southwest  Level Estimated
Thu 11:29:00 AM 56.7574 -39.2896 241° Southwest  Level Estimated
Thu 11:30:00 AM 56.7000 -39.4782 241° Southwest  Level Estimated
Thu 11:31:00 AM 56.6423 -39.6662 241° Southwest  Level Estimated
Thu 11:32:00 AM 56.5844 -39.8536 241° Southwest  Level Estimated
Thu 11:33:00 AM 56.5262 -40.0405 241° Southwest  Level Estimated
Thu 11:34:00 AM 56.4677 -40.2267 240° Southwest  Level Estimated
Thu 11:35:00 AM 56.4089 -40.4124 240° Southwest  Level Estimated
Thu 11:36:00 AM 56.3498 -40.5975 240° Southwest  Level Estimated
Thu 11:37:00 AM 56.2905 -40.7821 240° Southwest  Level Estimated
Thu 11:38:00 AM 56.2309 -40.9661 240° Southwest  Level Estimated
Thu 11:39:00 AM 56.1710 -41.1495 240° Southwest  Level Estimated
Thu 11:40:00 AM 56.1108 -41.3323 240° Southwest  Level Estimated
Thu 11:41:00 AM 56.0504 -41.5146 239° Southwest  Level Estimated
Thu 11:42:00 AM 55.9897 -41.6963 239° Southwest  Level Estimated
Thu 11:43:00 AM 55.9287 -41.8774 239° Southwest  Level Estimated
Thu 11:44:00 AM 55.8675 -42.0579 239° Southwest  Level Estimated
Thu 11:45:00 AM 55.8060 -42.2379 239° Southwest  Level Estimated
Thu 11:45:40 AM 62.9333 -56.0333 238° Southwest 460 529 34,000  Level Gander Center
Thu 11:46:00 AM 55.7411 -42.4265 239° Southwest  Level Estimated
Thu 11:46:40 AM 62.8667 -56.3000 241° Southwest 450 518 34,000  Level Gander Center
Thu 11:47:00 AM 55.6759 -42.6144 238° Southwest  Level Estimated
Thu 11:47:40 AM 62.8167 -56.5667 248° West 460 529 34,000  Level Gander Center
Thu 11:48:00 AM 55.6104 -42.8017 238° Southwest  Level Estimated
Thu 11:48:40 AM 62.7500 -56.8000 238° Southwest 460 529 34,000  Level Gander Center
Thu 11:49:00 AM 55.5446 -42.9883 238° Southwest  Level Estimated
Thu 11:49:40 AM 62.7167 -57.0500 254° West 450 518 34,000  Level Gander Center
Thu 11:50:00 AM 55.4786 -43.1743 238° Southwest  Level Estimated
Thu 11:50:40 AM 62.6500 -57.2833 238° Southwest 460 529 34,000  Level Gander Center
Thu 11:51:40 AM 62.6000 -57.5333 247° West 450 518 34,000  Level Gander Center
Thu 11:52:40 AM 62.5500 -57.8000 248° West 460 529 34,000  Level Gander Center
Thu 11:53:40 AM 62.4833 -58.0167 236° Southwest 460 529 34,000  Level Gander Center
Thu 11:54:40 AM 62.4333 -58.2667 247° West 460 529 34,000  Level Gander Center
Thu 11:55:40 AM 62.3667 -58.5333 242° Southwest 440 506 34,000  Level Gander Center
Thu 11:56:40 AM 62.3333 -58.7500 252° West 450 518 34,000  Level Gander Center
Thu 11:57:40 AM 62.2500 -59.0000 234° Southwest 460 529 34,000  Level Gander Center
Thu 11:58:40 AM 62.2000 -59.2500 247° West 470 541 34,000  Level Gander Center
Thu 11:59:40 AM 62.1333 -59.5167 242° Southwest 460 529 34,000  Level Gander Center
Thu 12:00:40 PM 62.0833 -59.7167 242° Southwest 460 529 34,000  Level Gander Center
Thu 12:01:40 PM 62.0167 -59.9333 237° Southwest 450 518 34,000  Level Gander Center
Thu 12:02:40 PM 61.9167 -60.1500 226° Southwest 450 518 34,000  Level Gander Center
Thu 12:03:40 PM 61.8167 -60.3333 221° Southwest 450 518 34,000  Level Gander Center
Thu 12:04:40 PM 61.7500 -60.5167 233° Southwest 450 518 34,000  Level Gander Center
Thu 12:05:40 PM 61.6500 -60.6833 218° Southwest 450 518 34,000  Level Gander Center
Thu 12:06:40 PM 61.5500 -60.8667 221° Southwest 460 529 34,000  Level Gander Center
Thu 12:07:40 PM 61.4500 -61.0000 213° Southwest 460 529 34,000  Level Gander Center
Thu 12:08:40 PM 61.3500 -61.1833 221° Southwest 450 518 34,000  Level Gander Center
Thu 12:09:40 PM 61.2667 -61.3833 229° Southwest 470 541 34,000  Level Gander Center
Thu 12:10:40 PM 61.1667 -61.5500 219° Southwest 470 541 34,000  Level Gander Center
Thu 12:11:40 PM 61.0667 -61.7000 216° Southwest 450 518 34,000  Level Gander Center
Thu 12:12:40 PM 60.9833 -61.8667 224° Southwest 450 518 34,000  Level Gander Center
Thu 12:13:40 PM 60.8833 -62.0333 219° Southwest 450 518 34,000  Level Gander Center
Thu 12:14:40 PM 60.7833 -62.2000 219° Southwest 450 518 34,000  Level Gander Center
Thu 12:15:40 PM 60.7000 -62.3667 224° Southwest 450 518 34,000  Level Gander Center
Thu 12:16:40 PM 60.6167 -62.5333 224° Southwest 440 506 34,000  Level Gander Center
Thu 12:17:40 PM 60.5500 -62.8000 243° Southwest 460 529 34,000  Level Gander Center
Thu 12:18:40 PM 60.5000 -63.0333 247° West 450 518 34,000  Level Gander Center
Thu 12:19:40 PM 60.4667 -63.2667 254° West 450 518 34,000  Level Gander Center
Thu 12:20:40 PM 60.4167 -63.5000 247° West 440 506 34,000  Level Gander Center
Thu 12:21:40 PM 60.3833 -63.7333 254° West 440 506 34,000  Level Gander Center
Thu 12:22:40 PM 60.3333 -63.9667 247° West 440 506 34,000  Level Gander Center
Thu 12:23:40 PM 60.2833 -64.2000 247° West 440 506 34,000  Level Gander Center
Thu 12:24:40 PM 60.1833 -64.3667 220° Southwest 450 518 34,000  Level Gander Center
Thu 12:25:40 PM 60.0833 -64.4833 210° Southwest 440 506 34,000  Level Gander Center
Thu 12:26:40 PM 60.0000 -64.6500 225° Southwest 440 506 34,000  Level Gander Center
Thu 12:27:40 PM 59.8833 -64.8000 213° Southwest 450 518 34,000  Level Gander Center
Thu 12:28:40 PM 59.7833 -64.9500 217° Southwest 450 518 34,000  Level Gander Center
Thu 12:29:40 PM 59.7000 -65.0833 219° Southwest 450 518 34,000  Level Gander Center
Thu 12:30:40 PM 59.6000 -65.2333 217° Southwest 450 518 34,000  Level Gander Center
Thu 12:31:40 PM 59.4833 -65.3833 213° Southwest 450 518 34,000  Level Gander Center
Thu 12:32:40 PM 59.4000 -65.5000 215° Southwest 440 506 34,000  Level Gander Center
Thu 12:33:40 PM 59.3000 -65.6500 217° Southwest 440 506 34,000  Level Gander Center
Thu 12:34:40 PM 59.2000 -65.8000 218° Southwest 440 506 34,000 50 Level Gander Center
Thu 12:35:40 PM 59.1000 -65.9500 218° Southwest 450 518 34,100 800 Climbing Gander Center
Thu 12:36:40 PM 59.0000 -66.1000 218° Southwest 450 518 35,600 950 Climbing Gander Center
Thu 12:37:40 PM 58.9000 -66.2500 218° Southwest 450 518 36,000 200 Climbing Gander Center
Thu 12:38:40 PM 58.7833 -66.3667 207° Southwest 440 506 36,000  Level Gander Center
Thu 12:39:40 PM 58.7000 -66.5167 223° Southwest 440 506 36,000  Level Gander Center
Thu 12:40:40 PM 58.6000 -66.6500 215° Southwest 440 506 36,000  Level Gander Center
Thu 12:41:40 PM 58.5000 -66.7667 211° Southwest 440 506 36,000  Level Gander Center
Thu 12:42:40 PM 58.4000 -66.9167 218° Southwest 440 506 36,000  Level Gander Center
Thu 12:43:40 PM 58.3167 -67.0667 223° Southwest 440 506 36,000  Level Gander Center
Thu 12:44:40 PM 58.2000 -67.1667 204° Southwest 440 506 36,000  Level Gander Center
Thu 12:45:40 PM 58.1167 -67.3167 224° Southwest 440 506 36,000  Level Gander Center
Thu 12:46:40 PM 58.0167 -67.4500 215° Southwest 440 506 36,000  Level Gander Center
Thu 12:47:40 PM 57.9000 -67.5667 208° Southwest 440 506 36,000  Level Gander Center
Thu 12:48:40 PM 57.8167 -67.7000 220° Southwest 440 506 36,000  Level Gander Center
Thu 12:49:40 PM 57.7000 -67.8500 215° Southwest 440 506 36,000  Level Gander Center
Thu 12:50:40 PM 57.6167 -67.9500 213° Southwest 430 495 36,000  Level Gander Center
Thu 12:51:40 PM 57.5167 -68.0833 216° Southwest 430 495 36,000  Level Gander Center
Thu 12:52:40 PM 57.4167 -68.2333 219° Southwest 430 495 36,000  Level Gander Center
Thu 12:53:40 PM 57.3333 -68.3333 213° Southwest 430 495 36,000  Level Gander Center
Thu 12:54:40 PM 57.2167 -68.4667 212° Southwest 430 495 36,000  Level Gander Center
Thu 12:55:40 PM 57.1167 -68.6000 216° Southwest 430 495 36,000  Level Gander Center
Thu 12:56:40 PM 57.0167 -68.7167 212° Southwest 430 495 36,000  Level Gander Center
Thu 12:57:40 PM 56.9333 -68.8500 221° Southwest 420 483 36,000  Level Gander Center
Thu 12:58:40 PM 56.8333 -68.9500 209° Southwest 420 483 36,000  Level Gander Center
Thu 12:59:40 PM 56.7333 -69.0833 216° Southwest 420 483 36,000  Level Gander Center
Thu 01:00:40 PM 56.6333 -69.1833 209° Southwest 420 483 36,000  Level Gander Center
Thu 01:01:40 PM 56.5333 -69.2833 209° Southwest 420 483 36,000  Level Gander Center
Thu 01:02:40 PM 56.4500 -69.4167 222° Southwest 420 483 36,000  Level Gander Center
Thu 01:03:40 PM 56.3500 -69.5167 209° Southwest 410 472 36,000  Level Gander Center
Thu 01:04:40 PM 56.2500 -69.6500 217° Southwest 410 472 36,000  Level Gander Center
Thu 01:05:40 PM 56.1500 -69.7500 209° Southwest 410 472 36,000  Level Gander Center
Thu 01:06:40 PM 56.0667 -69.8500 214° Southwest 410 472 36,000  Level Gander Center
Thu 01:07:40 PM 55.9500 -69.9833 213° Southwest 410 472 36,000  Level Gander Center
Thu 01:08:40 PM 55.8667 -70.0833 214° Southwest 410 472 36,000  Level Gander Center
Thu 01:09:40 PM 55.7667 -70.2000 213° Southwest 410 472 36,000  Level Gander Center
Thu 01:10:40 PM 55.6833 -70.3000 214° Southwest 410 472 36,000  Level Gander Center
Thu 01:11:40 PM 55.5667 -70.4000 206° Southwest 410 472 36,000  Level Gander Center
Thu 01:12:40 PM 55.4833 -70.5333 222° Southwest 400 460 36,000  Level Gander Center
Thu 01:13:40 PM 55.3833 -70.6167 205° Southwest 400 460 36,000  Level Gander Center
Thu 01:14:40 PM 55.3000 -70.7167 214° Southwest 400 460 36,000  Level Gander Center
Thu 01:15:40 PM 55.2000 -70.8167 210° Southwest 400 460 36,000  Level Gander Center
Thu 01:16:40 PM 55.1167 -70.9167 214° Southwest 390 449 36,000  Level Gander Center
Thu 01:17:40 PM 55.0167 -71.0333 214° Southwest 390 449 36,000  Level Gander Center
Thu 01:18:40 PM 54.9333 -71.1333 215° Southwest 390 449 36,000  Level Gander Center
Thu 01:19:40 PM 54.8333 -71.2333 210° Southwest 400 460 36,000  Level Gander Center
Thu 01:20:40 PM 54.7500 -71.3167 210° Southwest 390 449 36,000  Level Gander Center
Thu 01:21:40 PM 54.6500 -71.4500 218° Southwest 400 460 36,000  Level Gander Center
Thu 01:22:40 PM 54.5500 -71.5333 206° Southwest 390 449 36,000  Level Gander Center
Thu 01:23:40 PM 54.4667 -71.6333 215° Southwest 390 449 36,000  Level Gander Center
Thu 01:24:40 PM 54.3667 -71.7167 206° Southwest 390 449 36,000  Level Gander Center
Thu 01:25:40 PM 54.2833 -71.8167 215° Southwest 390 449 36,000  Level Gander Center
Thu 01:26:40 PM 54.1833 -71.9333 214° Southwest 390 449 36,000  Level Gander Center
Thu 01:27:40 PM 54.1000 -72.0333 215° Southwest 400 460 36,000  Level Gander Center
Thu 01:28:40 PM 53.9833 -72.1167 203° Southwest 400 460 36,000  Level Gander Center
Thu 01:29:40 PM 53.9000 -72.2000 211° Southwest 400 460 36,000  Level Gander Center
Thu 01:30:40 PM 53.8000 -72.3000 211° Southwest 400 460 36,000  Level Gander Center
Thu 01:31:40 PM 53.7000 -72.4167 215° Southwest 390 449 36,000  Level Gander Center
Thu 01:32:40 PM 53.6167 -72.5000 211° Southwest 390 449 36,000  Level Gander Center
Thu 01:33:40 PM 53.5167 -72.5833 206° Southwest 390 449 36,000  Level Gander Center
Thu 01:34:40 PM 53.4333 -72.6833 216° Southwest 400 460 36,000  Level Gander Center
Thu 01:35:40 PM 53.3333 -72.8000 215° Southwest 400 460 36,000  Level Gander Center
Thu 01:36:40 PM 53.2333 -72.8833 207° Southwest 400 460 36,000  Level Gander Center
Thu 01:37:40 PM 53.1500 -72.9667 211° Southwest 400 460 36,000  Level Gander Center
Thu 01:38:40 PM 53.0500 -73.0500 207° Southwest 400 460 36,000  Level Gander Center
Thu 01:39:40 PM 52.9667 -73.1667 220° Southwest 400 460 36,000  Level Gander Center
Thu 01:40:40 PM 52.8500 -73.2500 203° Southwest 400 460 36,000  Level Gander Center
Thu 01:41:40 PM 52.7500 -73.3333 207° Southwest 400 460 36,000  Level Gander Center
Thu 01:42:40 PM 52.6667 -73.4167 211° Southwest 390 449 36,000  Level Gander Center
Thu 01:43:40 PM 52.5667 -73.5167 211° Southwest 390 449 36,000  Level Gander Center
Thu 01:44:40 PM 52.4833 -73.6000 211° Southwest 390 449 36,000  Level Gander Center
Thu 01:45:40 PM 52.3833 -73.6833 207° Southwest 390 449 36,000  Level Gander Center
Thu 01:46:40 PM 52.2833 -73.7833 211° Southwest 380 437 36,000  Level Gander Center
Thu 01:47:40 PM 52.2000 -73.8667 212° Southwest 380 437 36,000  Level Gander Center
Thu 01:48:40 PM 52.1000 -73.9500 207° Southwest 390 449 36,000  Level Gander Center
Thu 01:49:40 PM 52.0000 -74.0333 207° Southwest 390 449 36,000  Level Gander Center
Thu 01:50:40 PM 51.9333 -74.1333 223° Southwest 380 437 36,000  Level Gander Center
Thu 01:51:40 PM 51.8333 -74.2167 207° Southwest 380 437 36,000  Level Gander Center
Thu 01:52:40 PM 51.7500 -74.3000 212° Southwest 380 437 36,000  Level Gander Center
Thu 01:53:40 PM 51.6500 -74.3667 202° Southwest 380 437 36,000  Level Gander Center
Thu 01:54:40 PM 51.5500 -74.4500 207° Southwest 380 437 36,000  Level Gander Center
Thu 01:55:40 PM 51.4667 -74.5333 212° Southwest 380 437 36,000  Level Gander Center
Thu 01:56:40 PM 51.3667 -74.6167 207° Southwest 380 437 36,000  Level Gander Center
Thu 01:57:40 PM 51.2833 -74.7000 212° Southwest 380 437 36,000  Level Gander Center
Thu 01:58:50 PM 51.1667 -74.7500 195° South 380 437 36,000  Level Montreal Center
Thu 01:59:50 PM 51.0833 -74.8333 212° Southwest 380 437 36,000  Level Montreal Center
Thu 02:00:50 PM 51.0000 -74.9167 212° Southwest 380 437 36,000  Level Montreal Center
Thu 02:01:50 PM 50.9000 -75.0000 208° Southwest 380 437 36,000  Level Montreal Center
Thu 02:02:50 PM 50.8000 -75.0833 208° Southwest 380 437 36,000  Level Montreal Center
Thu 02:03:50 PM 50.7167 -75.1667 212° Southwest 380 437 36,000  Level Montreal Center
Thu 02:04:50 PM 50.6167 -75.2500 208° Southwest 380 437 36,000  Level Montreal Center
Thu 02:05:50 PM 50.5167 -75.3333 208° Southwest 380 437 36,000  Level Montreal Center
Thu 02:06:50 PM 50.4333 -75.4167 213° Southwest 380 437 36,000  Level Montreal Center
Thu 02:07:50 PM 50.3500 -75.4833 207° Southwest 380 437 36,000  Level Montreal Center
Thu 02:08:50 PM 50.2500 -75.5667 208° Southwest 380 437 36,000  Level Montreal Center
Thu 02:09:50 PM 50.1667 -75.6500 213° Southwest 380 437 36,000  Level Montreal Center
Thu 02:10:50 PM 50.0667 -75.7333 208° Southwest 370 426 36,000  Level Montreal Center
Thu 02:11:50 PM 49.9500 -75.8167 205° Southwest 380 437 36,000  Level Montreal Center
Thu 02:12:50 PM 49.8667 -75.8833 207° Southwest 380 437 36,000  Level Montreal Center
Thu 02:13:50 PM 49.7667 -75.9667 208° Southwest 370 426 36,000  Level Montreal Center
Thu 02:14:50 PM 49.6833 -76.0500 213° Southwest 370 426 36,000  Level Montreal Center
Thu 02:15:50 PM 49.5833 -76.1000 198° South 370 426 36,000  Level Montreal Center
Thu 02:16:50 PM 49.5000 -76.1667 207° Southwest 370 426 36,000  Level Montreal Center
Thu 02:17:50 PM 49.4167 -76.2500 213° Southwest 370 426 36,000  Level Montreal Center
Thu 02:18:50 PM 49.3167 -76.3500 213° Southwest 370 426 36,000  Level Montreal Center
Thu 02:19:50 PM 49.2333 -76.4333 213° Southwest 370 426 36,000  Level Montreal Center
Thu 02:20:50 PM 49.1500 -76.4833 201° Southwest 370 426 36,000  Level Montreal Center
Thu 02:21:50 PM 49.0500 -76.5833 213° Southwest 370 426 36,000  Level Montreal Center
Thu 02:22:50 PM 48.9667 -76.6500 208° Southwest 370 426 36,000  Level Montreal Center
Thu 02:23:50 PM 48.8833 -76.7333 213° Southwest 370 426 36,000  Level Montreal Center
Thu 02:24:50 PM 48.7833 -76.8000 204° Southwest 370 426 36,000  Level Montreal Center
Thu 02:25:50 PM 48.7000 -76.8833 213° Southwest 370 426 36,000  Level Montreal Center
Thu 02:26:50 PM 48.6167 -76.9500 208° Southwest 370 426 36,000  Level Montreal Center
Thu 02:27:50 PM 48.5000 -77.0333 205° Southwest 370 426 36,000  Level Montreal Center
Thu 02:28:50 PM 48.4167 -77.1000 208° Southwest 370 426 36,000  Level Montreal Center
Thu 02:29:50 PM 48.3333 -77.1833 214° Southwest 370 426 36,000  Level Montreal Center
Thu 02:30:50 PM 48.2333 -77.2500 204° Southwest 370 426 36,000  Level Montreal Center
Thu 02:31:50 PM 48.1500 -77.3333 214° Southwest 370 426 36,000  Level Montreal Center
Thu 02:32:50 PM 48.0667 -77.4000 208° Southwest 370 426 36,000  Level Montreal Center
Thu 02:33:50 PM 47.9667 -77.5000 214° Southwest 370 426 36,000  Level Montreal Center
Thu 02:34:50 PM 47.8833 -77.5667 208° Southwest 370 426 36,000  Level Montreal Center
Thu 02:35:50 PM 47.8000 -77.6500 214° Southwest 370 426 36,000  Level Montreal Center
Thu 02:36:50 PM 47.7000 -77.7167 204° Southwest 370 426 36,000  Level Montreal Center
Thu 02:37:50 PM 47.6000 -77.7833 204° Southwest 380 437 36,000  Level Montreal Center
Thu 02:38:50 PM 47.5167 -77.8500 208° Southwest 370 426 36,000  Level Montreal Center
Thu 02:39:50 PM 47.4167 -77.9333 209° Southwest 370 426 36,000  Level Montreal Center
Thu 02:40:50 PM 47.3333 -78.0000 208° Southwest 370 426 36,000  Level Montreal Center
Thu 02:41:50 PM 47.2500 -78.0667 209° Southwest 370 426 36,000  Level Montreal Center
Thu 02:42:50 PM 47.1500 -78.1333 204° Southwest 370 426 36,000  Level Montreal Center
Thu 02:43:50 PM 47.0667 -78.2333 219° Southwest 370 426 36,000  Level Montreal Center
Thu 02:44:50 PM 46.9833 -78.3000 209° Southwest 370 426 36,000  Level Montreal Center
Thu 02:45:49 PM 46.8667 -78.3333 191° South 380 437 36,000  Level Toronto Center
Thu 02:46:49 PM 46.7833 -78.4167 214° Southwest 380 437 36,000  Level Toronto Center
Thu 02:47:49 PM 46.7000 -78.4833 209° Southwest 380 437 36,000  Level Toronto Center
Thu 02:53:36 PM 46.1798 -78.9055 209° Southwest 380 437 36,000  Level FlightAware ADS-B
Thu 02:54:59 PM 46.0324 -79.0171 208° Southwest 375 432 36,000  Level FlightAware ADS-B
Thu 02:56:51 PM 45.8605 -79.1464 208° Southwest 377 434 36,000  Level FlightAware ADS-B
Thu 02:57:49 PM 45.7667 -79.1833 208° Southwest 380 437 36,000  Level Toronto Center
Thu 02:58:49 PM 45.6667 -79.2500 205° Southwest 380 437 36,000  Level Toronto Center
Thu 02:59:49 PM 45.5833 -79.3167 209° Southwest 380 437 36,000  Level Toronto Center
Thu 03:00:49 PM 45.4833 -79.4000 210° Southwest 380 437 36,000  Level Toronto Center
Thu 03:01:49 PM 45.3833 -79.4667 205° Southwest 380 437 36,000  Level Toronto Center
Thu 03:02:49 PM 45.2833 -79.5333 205° Southwest 390 449 36,000  Level Toronto Center
Thu 03:08:31 PM 44.7598 -79.9534 205° Southwest 378 435 36,000  Level FlightAware ADS-B (CYKF)
Thu 03:09:16 PM 44.6897 -80.0036 207° Southwest 379 436 36,000  Level FlightAware ADS-B (CYKF)
Thu 03:10:15 PM 44.5984 -80.0689 207° Southwest 384 442 36,000  Level FlightAware ADS-B (CYKF)
Thu 03:10:56 PM 44.5331 -80.1155 207° Southwest 382 440 36,000  Level FlightAware ADS-B (CYKF)
Thu 03:11:34 PM 44.4777 -80.1548 207° Southwest 375 432 36,000  Level FlightAware ADS-B (CYKF)
Thu 03:12:31 PM 44.4666 -80.1627 207° Southwest 377 434 36,000  Level FlightAware ADS-B (CYKF)
Thu 03:13:16 PM 44.3182 -80.2677 207° Southwest 385 443 36,000  Level FlightAware ADS-B (CYKF)
Thu 03:13:51 PM 44.2826 -80.2928 207° Southwest 386 444 36,000  Level FlightAware ADS-B (CYKF)
Thu 03:14:34 PM 44.2081 -80.3451 207° Southwest 386 444 36,000  Level FlightAware ADS-B (CYKF)
Thu 03:15:15 PM 44.1258 -80.4027 207° Southwest 386 444 36,000  Level FlightAware ADS-B (CYKF)
Thu 03:15:56 PM 44.0620 -80.4474 207° Southwest 387 445 36,000  Level FlightAware ADS-B (CYKF)
Thu 03:16:29 PM 44.0093 -80.4841 207° Southwest 387 445 36,000  Level FlightAware ADS-B (CYKF)
Thu 03:17:17 PM 43.9323 -80.5376 207° Southwest 386 444 36,000  Level FlightAware ADS-B (CYKF)
Thu 03:17:56 PM 43.8691 -80.5816 207° Southwest 387 445 36,000  Level FlightAware ADS-B (CYKF)
Thu 03:18:37 PM 43.8043 -80.6265 207° Southwest 386 444 36,000  Level FlightAware ADS-B (CYKF)
Thu 03:19:12 PM 43.7475 -80.6657 206° Southwest 386 444 36,000  Level FlightAware ADS-B (CYKF)
Thu 03:19:57 PM 43.6757 -80.7152 206° Southwest 387 445 36,000  Level FlightAware ADS-B (CYKF)
Thu 03:20:31 PM 43.6351 -80.7431 206° Southwest 387 445 36,000  Level FlightAware ADS-B (CYKF)
Thu 03:21:15 PM 43.5839 -80.7783 206° Southwest 388 447 36,000  Level FlightAware ADS-B (CYKF)
Thu 03:21:51 PM 43.5252 -80.8185 206° Southwest 391 450 36,000  Level FlightAware ADS-B (CYKF)
Thu 03:22:35 PM 43.5252 -80.8185 206° Southwest 392 451 36,000  Level FlightAware ADS-B (CYKF)
Thu 03:23:55 PM 43.3235 -80.9561 206° Southwest 396 456 36,000  Level FlightAware ADS-B (CYKF)
Thu 03:24:37 PM 43.2223 -81.0247 206° Southwest 396 456 36,000  Level FlightAware ADS-B (CYKF)
Thu 03:25:17 PM 43.1559 -81.0696 206° Southwest 397 457 36,000  Level FlightAware ADS-B (CYKF)
Thu 03:25:56 PM 43.0967 -81.1094 206° Southwest 399 459 36,000  Level FlightAware ADS-B (CYKF)
Thu 03:26:36 PM 43.0282 -81.1555 206° Southwest 399 459 36,000  Level FlightAware ADS-B (CYKF)
Thu 03:27:16 PM 42.9663 -81.1942 205° Southwest 402 463 36,000  Level FlightAware ADS-B (CYKF)
Thu 03:27:55 PM 42.9354 -81.2128 204° Southwest 402 463 36,000  Level FlightAware ADS-B (CYKF)
Thu 03:28:33 PM 42.8337 -81.2752 204° Southwest 403 464 36,000  Level FlightAware ADS-B (CYKF)
Thu 03:29:15 PM 42.7557 -81.3233 204° Southwest 403 464 36,000  Level FlightAware ADS-B (CYKF)
Thu 03:29:45 PM 42.7153 -81.3481 204° Southwest 404 465 36,000  Level FlightAware ADS-B (CYKF)
Thu 03:30:15 PM 42.6585 -81.3829 204° Southwest 405 466 36,000  Level FlightAware ADS-B (CYKF)
Thu 03:30:51 PM 42.5923 -81.4235 204° Southwest 406 467 36,000  Level FlightAware ADS-B (CYKF)
Thu 03:31:34 PM 42.5433 -81.4534 204° Southwest 407 468 36,000  Level FlightAware ADS-B (CYKF)
Thu 03:32:16 PM 42.4525 -81.5089 204° Southwest 403 464 36,000  Level Cleveland Center
Thu 03:33:18 PM 42.3489 -81.5714 204° Southwest 404 465 36,000  Level Cleveland Center
Thu 03:34:20 PM 42.2439 -81.6353 204° Southwest 405 466 36,000  Level Cleveland Center
Thu 03:35:22 PM 42.1400 -81.6983 204° Southwest 406 467 36,000  Level Cleveland Center
Thu 03:36:23 PM 42.0350 -81.7606 204° Southwest 406 467 36,000  Level Cleveland Center
Thu 03:37:25 PM 41.9306 -81.8231 204° Southwest 407 468 36,000  Level Cleveland Center
Thu 03:38:27 PM 41.8092 -81.8956 204° Southwest 407 468 36,000  Level Cleveland Center
Thu 03:39:29 PM 41.7033 -81.9581 204° Southwest 411 473 36,000  Level Cleveland Center
Thu 03:40:31 PM 41.5975 -82.0208 204° Southwest 411 473 36,000  Level Cleveland Center
Thu 03:41:33 PM 41.4908 -82.0828 204° Southwest 413 475 36,000  Level Cleveland Center
Thu 03:42:35 PM 41.3847 -82.1461 204° Southwest 414 476 36,000  Level Cleveland Center
Thu 03:43:37 PM 41.2711 -82.1914 197° South 425 489 36,000  Level Cleveland Center
Thu 03:44:39 PM 41.1358 -82.2414 196° South 430 495 36,000  Level Cleveland Center
Thu 03:45:40 PM 41.0178 -82.2833 195° South 432 497 36,000  Level Cleveland Center
Thu 03:46:42 PM 40.9003 -82.3250 195° South 433 498 36,000  Level Cleveland Center
Thu 03:47:44 PM 40.7828 -82.3669 195° South 433 498 36,000  Level Cleveland Center
Thu 03:48:46 PM 40.6650 -82.4081 195° South 433 498 36,000  Level Cleveland Center
Thu 03:54:31 PM 39.9593 -82.6012 195° South 462 532 36,000  Level FlightAware ADS-B
Thu 03:55:40 PM 39.8553 -82.6086 183° South 465 535 36,000  Level FlightAware ADS-B
Thu 03:56:11 PM 39.7479 -82.6158 183° South 466 536 36,000  Level FlightAware ADS-B
Thu 03:57:02 PM 39.6366 -82.6232 183° South 461 531 36,000  Level FlightAware ADS-B
Thu 03:57:33 PM 39.5724 -82.6275 183° South 460 529 36,000  Level FlightAware ADS-B
Thu 03:58:18 PM 39.4761 -82.6340 183° South 459 528 36,000  Level FlightAware ADS-B
Thu 03:58:50 PM 39.4103 -82.6384 183° South 460 529 36,000  Level FlightAware ADS-B
Thu 03:59:31 PM 39.3211 -82.6444 183° South 460 529 36,000  Level FlightAware ADS-B
Thu 04:00:03 PM 39.2523 -82.6490 183° South 461 531 36,000  Level FlightAware ADS-B
Thu 04:00:48 PM 39.1574 -82.6554 183° South 462 532 36,000  Level FlightAware ADS-B
Thu 04:01:46 PM 39.0397 -82.6632 183° South 462 532 36,000  Level FlightAware ADS-B
Thu 04:02:32 PM 38.9418 -82.6696 183° South 461 531 36,000  Level FlightAware ADS-B
Thu 04:03:15 PM 38.8447 -82.6760 183° South 461 531 36,000  Level FlightAware ADS-B
Thu 04:03:45 PM 38.7779 -82.6804 183° South 461 531 36,000  Level FlightAware ADS-B
Thu 04:04:16 PM 38.7142 -82.6845 183° South 460 529 36,000  Level FlightAware ADS-B
Thu 04:05:12 PM 38.6521 -82.6886 183° South 461 531 36,000  Level FlightAware ADS-B
Thu 04:12:52 PM 37.6544 -82.7767 208° Southwest 437 503 36,000  Level Indianapolis Center
Thu 04:13:00 PM 37.8260 -82.7333 180° South  Level FlightAware Approximate
Thu 04:13:54 PM 37.5311 -82.8494 205° Southwest 417 480 36,000  Level Indianapolis Center
Thu 04:14:00 PM 37.7203 -82.7400 186° South  Level FlightAware Approximate
Thu 04:14:57 PM 37.4289 -82.9169 208° Southwest 414 476 36,000  Level Indianapolis Center
Thu 04:15:00 PM 37.6189 -82.7709 208° Southwest  Level FlightAware Approximate
Thu 04:15:59 PM 37.3269 -82.9833 207° Southwest 414 476 36,000  Level Indianapolis Center
Thu 04:16:00 PM 37.5252 -82.8335 208° Southwest  Level FlightAware Approximate
Thu 04:17:00 PM 37.4315 -82.8960 208° Southwest  Level FlightAware Approximate
Thu 04:17:01 PM 37.2253 -83.0497 207° Southwest 414 476 36,000  Level Indianapolis Center
Thu 04:18:00 PM 37.3378 -82.9584 208° Southwest  Level FlightAware Approximate
Thu 04:18:03 PM 37.1244 -83.1158 208° Southwest 414 476 36,000  Level Indianapolis Center
Thu 04:19:05 PM 37.0053 -83.1931 207° Southwest 415 478 36,000  Level Indianapolis Center
Thu 04:20:07 PM 36.9033 -83.2592 207° Southwest 416 479 36,000  Level Indianapolis Center
Thu 04:21:09 PM 36.8003 -83.3247 207° Southwest 418 481 36,000  Level Indianapolis Center
Thu 04:22:11 PM 36.6961 -83.3914 207° Southwest 420 483 36,000  Level Indianapolis Center
Thu 04:23:13 PM 36.5756 -83.4692 207° Southwest 420 483 36,000  Level Indianapolis Center
Thu 04:24:15 PM 36.4831 -83.5278 207° Southwest 422 486 36,000  Level Indianapolis Center
Thu 04:25:17 PM 36.3572 -83.6081 207° Southwest 421 484 36,000  Level Indianapolis Center
Thu 04:26:19 PM 36.2514 -83.6758 207° Southwest 426 490 36,000  Level Indianapolis Center
Thu 04:27:21 PM 36.1464 -83.7414 207° Southwest 421 484 36,000  Level Indianapolis Center
Thu 04:28:05 PM 36.0664 -83.7947 208° Southwest 425 489 36,000  Level Atlanta Center
Thu 04:29:06 PM 35.9622 -83.8617 207° Southwest 425 489 36,000  Level Atlanta Center
Thu 04:30:05 PM 35.8642 -83.9056 200° South 425 489 36,000  Level Atlanta Center
Thu 04:36:07 PM 35.1091 -84.0870 200° South 456 525 36,000  Level FlightAware ADS-B (KDZJ)
Thu 04:36:45 PM 35.0313 -84.1056 191° South 456 525 36,000  Level FlightAware ADS-B (KDZJ)
Thu 04:37:29 PM 34.9410 -84.1272 191° South 456 525 36,000  Level FlightAware ADS-B (KDZJ)
Thu 04:38:02 PM 34.8717 -84.1437 191° South 459 528 36,000  Level FlightAware ADS-B (KDZJ)
Thu 04:38:40 PM 34.7927 -84.1625 191° South 459 528 36,000  Level FlightAware ADS-B (KDZJ)
Thu 04:39:27 PM 34.6928 -84.1862 191° South 462 532 36,000  Level FlightAware ADS-B (KDZJ)
Thu 04:40:08 PM 34.6074 -84.2064 191° South 463 533 36,000  Level FlightAware ADS-B (KDZJ)
Thu 04:40:50 PM 34.5209 -84.2269 191° South 456 525 36,000  Level FlightAware ADS-B (KDZJ)
Thu 04:41:29 PM 34.4388 -84.2462 191° South 456 525 36,000  Level FlightAware ADS-B (KDZJ)
Thu 04:42:09 PM 34.3546 -84.2661 191° South 463 533 36,000  Level FlightAware ADS-B (KDZJ)
Thu 04:42:49 PM 34.2688 -84.2862 191° South 458 527 36,000  Level FlightAware ADS-B (KDZJ)
Thu 04:43:29 PM 34.1837 -84.3062 191° South 462 532 36,000  Level FlightAware ADS-B (KDZJ)
Thu 04:44:09 PM 34.0976 -84.3264 191° South 473 544 36,000  Level FlightAware ADS-B (KDZJ)
Thu 04:44:45 PM 34.0214 -84.3441 191° South 475 547 36,000 513 Level FlightAware ADS-B (KDZJ)
Thu 04:46:06 PM 33.8542 -84.3839 191° South 480 552 37,000 426 Climbing Atlanta Center
Thu 04:47:06 PM 33.7311 -84.4136 191° South 480 552 37,000  Level Atlanta Center
Thu 04:48:05 PM 33.6036 -84.4353 188° South 474 545 37,000  Level Atlanta Center
Thu 04:49:05 PM 33.4575 -84.4347 180° South 474 545 37,000  Level Atlanta Center
Thu 04:50:05 PM 33.3261 -84.4342 180° South 474 545 37,000  Level Atlanta Center
Thu 04:51:05 PM 33.1947 -84.4286 178° South 474 545 37,000  Level Atlanta Center
Thu 04:52:05 PM 33.0694 -84.4281 180° South 465 535 37,000  Level Atlanta Center
Thu 04:53:06 PM 32.9419 -84.4250 179° South 458 527 37,000  Level Atlanta Center
Thu 04:54:05 PM 32.8189 -84.4244 180° South 451 519 37,000  Level Atlanta Center
Thu 04:55:06 PM 32.7083 -84.4167 177° South 446 513 37,000  Level Atlanta Center
Thu 04:56:06 PM 32.5831 -84.4161 180° South 446 513 37,000  Level Atlanta Center
Thu 04:57:05 PM 32.4619 -84.4131 179° South 446 513 37,000  Level Atlanta Center
Thu 04:58:05 PM 32.3367 -84.4100 179° South 446 513 37,000  Level Atlanta Center
Thu 05:00:00 PM 32.1324 -84.4022 178° South  Level FlightAware Approximate
Thu 05:01:24 PM 31.9319 -84.4031 178° South 441 507 37,000  Level Jacksonville Center
Thu 05:02:24 PM 31.8089 -84.3986 178° South 441 507 37,000  Level Jacksonville Center
Thu 05:07:55 PM 31.1496 -84.3855 178° South 425 489 37,000  Level FlightAware ADS-B (KONZ)
Thu 05:09:58 PM 30.9230 -84.3811 179° South 417 480 37,000  Level FlightAware ADS-B (KONZ)
Thu 05:10:40 PM 30.8159 -84.3790 179° South 415 478 37,000  Level FlightAware ADS-B (KONZ)
Thu 05:11:19 PM 30.7685 -84.3781 179° South 415 478 37,000  Level FlightAware ADS-B (KONZ)
Thu 05:11:58 PM 30.6670 -84.3751 179° South 418 481 37,000  Level FlightAware ADS-B (KONZ)
Thu 05:12:37 PM 30.5907 -84.3620 172° South 431 496 37,000  Level FlightAware ADS-B (KONZ)
Thu 05:13:40 PM 30.4807 -84.3205 162° South 447 514 37,000  Level FlightAware ADS-B (KONZ)
Thu 05:14:18 PM 30.3989 -84.2705 152° Southeast 455 524 37,000  Level FlightAware ADS-B (KONZ)
Thu 05:15:03 PM 30.3152 -84.2159 151° Southeast 453 521 37,000  Level FlightAware ADS-B (KONZ)
Thu 05:15:34 PM 30.2597 -84.1797 151° Southeast 452 520 37,000  Level FlightAware ADS-B (KONZ)
Thu 05:16:19 PM 30.1767 -84.1254 151° Southeast 451 519 37,000  Level FlightAware ADS-B (KONZ)
Thu 05:17:08 PM 30.0897 -84.0689 151° Southeast 447 514 37,000  Level FlightAware ADS-B (KONZ)
Thu 05:17:40 PM 30.0331 -84.0321 151° Southeast 448 516 37,000 -91 Level FlightAware ADS-B (KONZ)
Thu 05:18:14 PM 29.9712 -83.9920 151° Southeast 450 518 36,900 -577 Descending FlightAware ADS-B (KONZ)
Thu 05:19:24 PM 29.8492 -83.9150 151° Southeast 451 519 36,000 -877 Descending Jacksonville Center
Thu 05:20:24 PM 29.7411 -83.8469 151° Southeast 451 519 35,000 -550 Descending Jacksonville Center
Thu 05:21:24 PM 29.6289 -83.7742 151° Southeast 451 519 34,900  Descending Jacksonville Center
Thu 05:22:24 PM 29.5228 -83.7039 150° Southeast 456 525 35,000 Climbing Jacksonville Center
Thu 05:38:21 PM 27.7726 -82.5941 150° Southeast 464 534 35,000  Level FlightAware ADS-B
Thu 05:39:00 PM 27.7019 -82.5468 149° Southeast 464 534 35,000  Level FlightAware ADS-B
Thu 05:39:37 PM 27.6354 -82.5025 149° Southeast 464 534 35,000  Level FlightAware ADS-B
Thu 05:40:12 PM 27.5684 -82.4579 150° Southeast 464 534 35,000  Level FlightAware ADS-B
Thu 05:41:00 PM 27.5057 -82.4162 149° Southeast 459 528 35,000  Level FlightAware ADS-B
Thu 05:41:41 PM 27.4063 -82.3504 150° Southeast 457 526 35,000  Level FlightAware ADS-B
Thu 05:42:22 PM 27.3300 -82.2999 150° Southeast 454 522 35,000  Level FlightAware ADS-B
Thu 05:43:02 PM 27.2595 -82.2533 150° Southeast 452 520 35,000  Level FlightAware ADS-B
Thu 05:43:41 PM 27.1898 -82.2074 150° Southeast 449 517 35,000  Level FlightAware ADS-B
Thu 05:44:21 PM 27.1175 -82.1598 150° Southeast 448 516 35,000  Level FlightAware ADS-B
Thu 05:44:58 PM 27.0512 -82.1162 150° Southeast 449 517 35,000  Level FlightAware ADS-B
Thu 05:45:57 PM 26.9450 -82.0465 150° Southeast 450 518 35,000  Level FlightAware ADS-B
Thu 05:46:40 PM 26.8799 -82.0039 150° Southeast 451 519 35,000  Level FlightAware ADS-B
Thu 05:47:17 PM 26.8046 -81.9547 150° Southeast 453 521 35,000  Level FlightAware ADS-B
Thu 05:48:01 PM 26.7248 -81.9026 150° Southeast 455 524 35,000  Level FlightAware ADS-B
Thu 05:48:41 PM 26.6574 -81.8587 150° Southeast 458 527 35,000  Level FlightAware ADS-B
Thu 05:49:22 PM 26.5737 -81.8042 150° Southeast 460 529 35,000  Level FlightAware ADS-B
Thu 05:50:01 PM 26.4994 -81.7654 155° Southeast 446 513 35,000  Level FlightAware ADS-B
Thu 05:51:02 PM 26.3936 -81.7244 161° South 442 509 35,000  Level FlightAware ADS-B
Thu 05:51:43 PM 26.3015 -81.6889 161° South 442 509 35,000  Level FlightAware ADS-B
Thu 05:52:22 PM 26.2252 -81.6600 161° South 442 509 35,000  Level FlightAware ADS-B
Thu 05:53:03 PM 26.1527 -81.6326 161° South 442 509 35,000  Level FlightAware ADS-B
Thu 05:53:42 PM 26.0716 -81.6020 161° South 443 510 35,000  Level FlightAware ADS-B
Thu 05:54:41 PM 25.9554 -81.5582 161° South 444 511 35,000  Level FlightAware ADS-B
Thu 05:55:20 PM 25.8802 -81.5300 161° South 446 513 35,000  Level FlightAware ADS-B
Thu 05:56:04 PM 25.7956 -81.4982 161° South 448 516 35,000  Level FlightAware ADS-B
Thu 05:56:44 PM 25.7156 -81.4681 161° South 447 514 35,000  Level FlightAware ADS-B
Thu 05:57:23 PM 25.6379 -81.4391 161° South 447 514 35,000  Level FlightAware ADS-B
Thu 05:58:32 PM 25.5211 -81.3992 161° South 441 507 35,000  Level Miami Center
Thu 05:59:32 PM 25.3892 -81.3506 162° South 447 514 35,000  Level Miami Center
Thu 06:00:32 PM 25.2714 -81.3047 161° South 447 514 35,000  Level Miami Center
Thu 06:01:32 PM 25.1536 -81.2614 162° South 452 520 35,000  Level Miami Center
Thu 06:02:32 PM 25.0339 -81.2183 162° South 452 520 35,000  Level Miami Center
Thu 06:03:32 PM 24.9139 -81.1728 161° South 452 520 35,000  Level Miami Center
Thu 06:04:32 PM 24.7942 -81.1297 162° South 452 520 35,000  Level Miami Center
Thu 06:05:32 PM 24.6756 -81.1119 172° South 447 514 35,000  Level Miami Center
Thu 06:06:32 PM 24.5606 -81.1217 184° South 429 494 35,000 -800 Level Miami Center
Thu 06:07:32 PM 24.4450 -81.1381 187° South 424 488 33,400 -2,100 Descending Miami Center
Thu 06:08:32 PM 24.3358 -81.1572 189° South 419 482 30,800 -2,350 Descending Miami Center
Thu 06:09:32 PM 24.2308 -81.1764 189° South 401 461 28,700 -1,850 Descending Miami Center
Thu 06:10:32 PM 24.1261 -81.1956 189° South 390 449 27,100 -1,700 Descending Miami Center
Thu 06:11:32 PM 24.0267 -81.2308 198° South 384 442 25,300 -1,800 Descending Miami Center
Thu 06:13:00 PM 23.8875 -81.3417 225° Southwest  Level FlightAware Approximate
Thu 06:20:00 PM 23.3031 -82.0222 228° Southwest  Level FlightAware Approximate
Thu 06:21:00 PM 23.2201 -82.1199 226° Southwest  Level FlightAware Approximate
Thu 06:22:00 PM 23.1325 -82.2117 212° Southwest  Level FlightAware Approximate
Thu 06:23:00 PM 23.0523 -82.3081 231° Southwest  Level FlightAware Approximate
Thu 06:24:00 PM 22.9891 -82.4091 223° Southwest  Level Estimated
Thu 06:25:00 PM 22.9891 -82.4091 223° Southwest  Level Estimated
Thu 06:26:00 PM 22.9891 -82.4091 223° Southwest  Level Estimated
Thu 06:27:00 PM 22.9891 -82.4091 223° Southwest  Level Estimated
Thu 06:28:00 PM 22.9891 -82.4091 223° Southwest  Level Estimated
Thu 06:29:00 PM 22.9891 -82.4091 223° Southwest  Level Estimated
Thu 06:30:00 PM 22.9891 -82.4091 223° Southwest  Level Estimated
Thu 06:31:00 PM 22.9891 -82.4091 223° Southwest  Level Estimated
Thu 06:32:00 PM 22.9891 -82.4091 223° Southwest  Level Estimated
Thu 06:33:00 PM 22.9891 -82.4091 223° Southwest  Level Estimated
Thu 06:34:00 PM 22.9891 -82.4091 223° Southwest  Level Estimated
Thu 06:35:00 PM 22.9891 -82.4091 223° Southwest  Level Estimated
Thu 06:36:00 PM 22.9891 -82.4091 223° Southwest  Level Estimated
Thu 06:37:00 PM 22.9891 -82.4091 223° Southwest  Level Estimated
Thu 06:38:00 PM 22.9891 -82.4091 223° Southwest  Level Estimated
Thu 06:39:00 PM 22.9891 -82.4091 223° Southwest  Level Estimated
Thu 06:40:00 PM 22.9891 -82.4091 223° Southwest  Level Estimated
Thu 06:41:00 PM 22.9891 -82.4091 223° Southwest  Level Estimated
Thu 06:42:00 PM 22.9891 -82.4091 223° Southwest  Level Estimated
Thu 06:43:00 PM 22.9891 -82.4091 223° Southwest  Level Estimated
Thu 06:44:00 PM 22.9891 -82.4091 223° Southwest  Level Estimated
Thu 06:45:00 PM 22.9891 -82.4091 223° Southwest  Level Estimated
Thu 06:46:00 PM 22.9891 -82.4091 223° Southwest  Level Estimated

Login

Don't have an account? Register now (free) for customized features, flight alerts, and more!